Carp Lake, MI (49718)

11:36 AM EDT on August 20, 2014 (GMT -0400)
Creekside, 4 Miles WSW Bliss | Change Station
CLOSE
Current Station
Personal Weather Station
Location: Bliss Township, MI
Elevation: 708 ft
Nearby Weather Stations

Elev 708 ft 45.65 °N, 84.92 °W | Updated 1 second ago

Overcast
Overcast
65.1 °F
Feels Like 65.1 °F
N
4.0
Wind Variable Wind from SSW
Gusts 0.0 mph

Today
High -- | Low -- °F
--% Chance of Precip.
Yesterday
High -- | Low -- °F
Precip. -- in
6:45 AM 8:38 PM
Waning Crescent, 21% visible
Pressure 29.83 in
Visibility 9.0 miles
Clouds Mostly Cloudy 900 ft
Overcast 1300 ft
Dew Point 64 °F
Humidity 96%
Rainfall 0.00 in
Snow Depth Not available.
UV 2 out of 12
Pollen 5.20 out of 12
Ozone Good
PM2.5 Good
Flu Activity Not available.
SPECI KPLN 201531Z AUTO 22004KT 9SM BKN009 OVC013 19/17 A2983 RMK AO2 CIG 006V012 T01890172

More Conditions Fewer Conditions

Pressure 29.83 in
Visibility 9.0 miles
Clouds Mostly Cloudy 900 ft
Overcast 1300 ft
Dew Point 64 °F
Humidity 96%
Rainfall 0.00 in
Snow Depth Not available.
UV 2 out of 12
Pollen 5.20 out of 12
Ozone Good
PM2.5 Good
Flu Activity Not available.
SPECI KPLN 201531Z AUTO 22004KT 9SM BKN009 OVC013 19/17 A2983 RMK AO2 CIG 006V012 T01890172

More Conditions Fewer Conditions

Nowcast | as of 11:00 am EDT on August 20, 2014

At 12 PM...cloudy. Temperature 68. West winds 7 mph. At 2 PM...mostly cloudy. Temperature 69. West winds 7 mph. At 4 PM...mostly cloudy. Temperature 69. West winds 8 mph. At 6 PM...mostly cloudy. Temperature 69. West winds 8 mph.

×

10-Day Weather Forecast

Almanac

Astronomy

Aug. 20, 2014 Rise Set
Actual Time 6:45 AM EDT 8:38 PM EDT
Civil Twilight 6:13 AM EDT 9:10 PM EDT
Nautical Twilight 5:34 AM EDT 9:49 PM EDT
Astronomical Twilight 4:51 AM EDT 10:31 PM EDT
Moon 2:19 AM EDT 5:28 PM EDT
Length of Visible Light 14h 56m
Length of Day
13h 53m
Tomorrow will be 2m 58s shorter.
Waning Crescent, 21% of the Moon is Illuminated
Today
Waning Crescent
Aug 25
New
Sep 2
First Quarter
Sep 8
Full
Sep 15
Last Quarter

Today's Extremes

State Highs State Lows

Community

WunderPhotos

Upload Photos

1,745,667 photos uploaded!

WunderBlogs® & News

Nearby

Air Quality

  Air Quality AQ Index Pollutant
Yesterday Good
OZONE
Yesterday Good
PM2.5
Current Good
PM2.5
Current Good
OZONE
Wednesday Good
OZONE
Wednesday Good
PM2.5
Thursday Moderate
PM2.5
Thursday Good
OZONE

Snow Depth

Station Depth Elevation
No new snow has been reported.

Earthquake Activity

City Distance Mag. Time & Date
No recent earthquake activity has been reported nearby.
Minimum magnitude displayed is 2.5.

Coastal Water Temperatures

Place Temperature
Mackinaw City, MI 61.0 °F
Rock Cut, MI 62.1 °F
West Neebish, MI 59.0 °F
S W Pier, MI 62.1 °F

Nearby Weather Stations